sensor_id;sensor_type;location;lat;lon;timestamp;P1;durP1;ratioP1;P2;durP2;ratioP2
62153;SDS011;48140;45.486;9.226;2022-11-27T00:01:50;15.93;;;8.32;;
62153;SDS011;48140;45.486;9.226;2022-11-27T00:04:16;12.20;;;7.75;;
62153;SDS011;48140;45.486;9.226;2022-11-27T00:06:42;15.48;;;7.90;;
62153;SDS011;48140;45.486;9.226;2022-11-27T00:09:10;12.85;;;7.68;;
62153;SDS011;48140;45.486;9.226;2022-11-27T00:11:37;14.38;;;8.18;;
62153;SDS011;48140;45.486;9.226;2022-11-27T00:14:04;15.18;;;8.00;;
62153;SDS011;48140;45.486;9.226;2022-11-27T00:16:30;14.38;;;8.27;;
62153;SDS011;48140;45.486;9.226;2022-11-27T00:18:56;15.20;;;8.55;;
62153;SDS011;48140;45.486;9.226;2022-11-27T00:21:24;15.15;;;8.65;;
62153;SDS011;48140;45.486;9.226;2022-11-27T00:23:52;15.05;;;8.48;;
62153;SDS011;48140;45.486;9.226;2022-11-27T00:26:20;15.07;;;7.57;;
62153;SDS011;48140;45.486;9.226;2022-11-27T00:28:46;13.00;;;7.88;;
62153;SDS011;48140;45.486;9.226;2022-11-27T00:31:14;13.35;;;7.35;;
62153;SDS011;48140;45.486;9.226;2022-11-27T00:33:41;12.98;;;7.75;;
62153;SDS011;48140;45.486;9.226;2022-11-27T00:36:07;13.73;;;7.38;;
62153;SDS011;48140;45.486;9.226;2022-11-27T00:38:34;14.27;;;7.22;;
62153;SDS011;48140;45.486;9.226;2022-11-27T00:41:10;14.18;;;7.07;;
62153;SDS011;48140;45.486;9.226;2022-11-27T00:43:38;13.77;;;8.18;;
62153;SDS011;48140;45.486;9.226;2022-11-27T00:46:04;13.55;;;7.10;;
62153;SDS011;48140;45.486;9.226;2022-11-27T00:48:30;14.77;;;7.40;;
62153;SDS011;48140;45.486;9.226;2022-11-27T00:51:03;15.35;;;7.22;;
62153;SDS011;48140;45.486;9.226;2022-11-27T00:53:30;12.57;;;6.55;;
62153;SDS011;48140;45.486;9.226;2022-11-27T00:55:56;15.13;;;7.45;;
62153;SDS011;48140;45.486;9.226;2022-11-27T00:58:23;11.23;;;7.10;;
62153;SDS011;48140;45.486;9.226;2022-11-27T01:00:53;11.60;;;6.47;;
62153;SDS011;48140;45.486;9.226;2022-11-27T01:03:20;10.50;;;6.65;;
62153;SDS011;48140;45.486;9.226;2022-11-27T01:05:46;12.30;;;6.78;;
62153;SDS011;48140;45.486;9.226;2022-11-27T01:08:11;11.70;;;6.63;;
62153;SDS011;48140;45.486;9.226;2022-11-27T01:10:37;14.00;;;7.20;;
62153;SDS011;48140;45.486;9.226;2022-11-27T01:13:03;13.05;;;6.70;;
62153;SDS011;48140;45.486;9.226;2022-11-27T01:15:28;11.95;;;6.82;;
62153;SDS011;48140;45.486;9.226;2022-11-27T01:17:54;14.10;;;6.25;;
62153;SDS011;48140;45.486;9.226;2022-11-27T01:20:19;10.57;;;6.30;;
62153;SDS011;48140;45.486;9.226;2022-11-27T01:22:45;10.75;;;6.30;;
62153;SDS011;48140;45.486;9.226;2022-11-27T01:25:10;11.43;;;6.32;;
62153;SDS011;48140;45.486;9.226;2022-11-27T01:27:36;12.68;;;6.13;;
62153;SDS011;48140;45.486;9.226;2022-11-27T01:30:02;10.68;;;6.30;;
62153;SDS011;48140;45.486;9.226;2022-11-27T01:32:28;10.98;;;5.70;;
62153;SDS011;48140;45.486;9.226;2022-11-27T01:34:53;11.00;;;6.03;;
62153;SDS011;48140;45.486;9.226;2022-11-27T01:37:19;11.20;;;5.93;;
62153;SDS011;48140;45.486;9.226;2022-11-27T01:39:47;11.35;;;5.82;;
62153;SDS011;48140;45.486;9.226;2022-11-27T01:42:14;9.70;;;5.78;;
62153;SDS011;48140;45.486;9.226;2022-11-27T01:44:45;8.93;;;5.43;;
62153;SDS011;48140;45.486;9.226;2022-11-27T01:47:14;10.10;;;5.85;;
62153;SDS011;48140;45.486;9.226;2022-11-27T01:49:50;11.30;;;5.57;;
62153;SDS011;48140;45.486;9.226;2022-11-27T01:52:20;11.25;;;5.78;;
62153;SDS011;48140;45.486;9.226;2022-11-27T01:57:43;11.40;;;6.70;;
62153;SDS011;48140;45.486;9.226;2022-11-27T02:00:12;8.20;;;5.10;;
62153;SDS011;48140;45.486;9.226;2022-11-27T02:02:39;9.93;;;5.63;;
62153;SDS011;48140;45.486;9.226;2022-11-27T02:05:06;9.10;;;5.07;;
62153;SDS011;48140;45.486;9.226;2022-11-27T02:07:34;11.73;;;5.85;;
62153;SDS011;48140;45.486;9.226;2022-11-27T02:10:00;11.93;;;5.60;;
62153;SDS011;48140;45.486;9.226;2022-11-27T02:12:49;10.43;;;5.47;;
62153;SDS011;48140;45.486;9.226;2022-11-27T02:15:28;8.68;;;5.28;;
62153;SDS011;48140;45.486;9.226;2022-11-27T02:18:05;10.02;;;5.47;;
62153;SDS011;48140;45.486;9.226;2022-11-27T02:20:55;8.90;;;5.30;;
62153;SDS011;48140;45.486;9.226;2022-11-27T02:23:51;7.13;;;4.78;;
62153;SDS011;48140;45.486;9.226;2022-11-27T02:29:55;10.63;;;5.68;;
62153;SDS011;48140;45.486;9.226;2022-11-27T02:32:34;12.90;;;6.13;;
62153;SDS011;48140;45.486;9.226;2022-11-27T02:35:09;10.68;;;5.13;;
62153;SDS011;48140;45.486;9.226;2022-11-27T02:37:56;9.00;;;5.18;;
62153;SDS011;48140;45.486;9.226;2022-11-27T02:40:37;9.95;;;5.15;;
62153;SDS011;48140;45.486;9.226;2022-11-27T02:43:21;9.80;;;5.13;;
62153;SDS011;48140;45.486;9.226;2022-11-27T02:45:52;9.38;;;5.53;;
62153;SDS011;48140;45.486;9.226;2022-11-27T02:48:20;9.73;;;5.72;;
62153;SDS011;48140;45.486;9.226;2022-11-27T02:50:49;10.23;;;5.55;;
62153;SDS011;48140;45.486;9.226;2022-11-27T02:53:16;13.68;;;5.88;;
62153;SDS011;48140;45.486;9.226;2022-11-27T02:55:49;8.02;;;4.80;;
62153;SDS011;48140;45.486;9.226;2022-11-27T02:58:18;8.23;;;4.70;;
62153;SDS011;48140;45.486;9.226;2022-11-27T03:00:46;11.90;;;5.38;;
62153;SDS011;48140;45.486;9.226;2022-11-27T03:03:15;8.35;;;5.00;;
62153;SDS011;48140;45.486;9.226;2022-11-27T03:05:44;9.73;;;5.80;;
62153;SDS011;48140;45.486;9.226;2022-11-27T03:11:18;9.30;;;5.28;;
62153;SDS011;48140;45.486;9.226;2022-11-27T03:13:46;9.55;;;5.32;;
62153;SDS011;48140;45.486;9.226;2022-11-27T03:23:59;10.27;;;5.43;;
62153;SDS011;48140;45.486;9.226;2022-11-27T03:26:25;11.25;;;5.55;;
62153;SDS011;48140;45.486;9.226;2022-11-27T03:28:51;10.73;;;5.13;;
62153;SDS011;48140;45.486;9.226;2022-11-27T03:31:19;8.80;;;5.22;;
62153;SDS011;48140;45.486;9.226;2022-11-27T03:33:47;11.60;;;5.82;;
62153;SDS011;48140;45.486;9.226;2022-11-27T03:36:15;11.75;;;5.57;;
62153;SDS011;48140;45.486;9.226;2022-11-27T03:38:43;9.45;;;5.63;;
62153;SDS011;48140;45.486;9.226;2022-11-27T03:41:15;8.68;;;4.93;;
62153;SDS011;48140;45.486;9.226;2022-11-27T03:43:55;13.15;;;6.25;;
62153;SDS011;48140;45.486;9.226;2022-11-27T03:46:39;11.63;;;5.32;;
62153;SDS011;48140;45.486;9.226;2022-11-27T03:49:30;9.18;;;5.00;;
62153;SDS011;48140;45.486;9.226;2022-11-27T03:54:48;11.15;;;5.75;;
62153;SDS011;48140;45.486;9.226;2022-11-27T04:00:24;9.05;;;5.28;;
62153;SDS011;48140;45.486;9.226;2022-11-27T04:02:52;10.20;;;5.80;;
62153;SDS011;48140;45.486;9.226;2022-11-27T04:05:18;10.27;;;5.80;;
62153;SDS011;48140;45.486;9.226;2022-11-27T04:07:44;15.27;;;6.20;;
62153;SDS011;48140;45.486;9.226;2022-11-27T04:10:10;10.68;;;5.88;;
62153;SDS011;48140;45.486;9.226;2022-11-27T04:12:37;14.02;;;5.82;;
62153;SDS011;48140;45.486;9.226;2022-11-27T04:15:03;10.02;;;6.00;;
62153;SDS011;48140;45.486;9.226;2022-11-27T04:17:30;12.15;;;6.35;;
62153;SDS011;48140;45.486;9.226;2022-11-27T04:19:56;10.65;;;4.78;;
62153;SDS011;48140;45.486;9.226;2022-11-27T04:22:22;12.35;;;6.00;;
62153;SDS011;48140;45.486;9.226;2022-11-27T04:24:47;10.20;;;5.60;;
62153;SDS011;48140;45.486;9.226;2022-11-27T04:27:13;11.35;;;5.97;;
62153;SDS011;48140;45.486;9.226;2022-11-27T04:29:39;12.50;;;6.10;;
62153;SDS011;48140;45.486;9.226;2022-11-27T04:32:04;10.55;;;6.28;;
62153;SDS011;48140;45.486;9.226;2022-11-27T04:34:30;11.50;;;5.53;;
62153;SDS011;48140;45.486;9.226;2022-11-27T04:36:56;12.80;;;6.30;;
62153;SDS011;48140;45.486;9.226;2022-11-27T04:39:22;10.75;;;6.45;;
62153;SDS011;48140;45.486;9.226;2022-11-27T04:41:48;11.23;;;6.22;;
62153;SDS011;48140;45.486;9.226;2022-11-27T04:44:13;13.55;;;6.55;;
62153;SDS011;48140;45.486;9.226;2022-11-27T04:46:39;11.57;;;7.38;;
62153;SDS011;48140;45.486;9.226;2022-11-27T04:49:05;15.95;;;8.15;;
62153;SDS011;48140;45.486;9.226;2022-11-27T04:51:31;13.75;;;7.10;;
62153;SDS011;48140;45.486;9.226;2022-11-27T04:53:56;13.48;;;8.15;;
62153;SDS011;48140;45.486;9.226;2022-11-27T04:56:22;17.67;;;8.63;;
62153;SDS011;48140;45.486;9.226;2022-11-27T04:58:48;13.13;;;7.45;;
62153;SDS011;48140;45.486;9.226;2022-11-27T05:01:14;12.63;;;7.70;;
62153;SDS011;48140;45.486;9.226;2022-11-27T05:03:40;16.95;;;8.32;;
62153;SDS011;48140;45.486;9.226;2022-11-27T05:06:05;14.57;;;8.27;;
62153;SDS011;48140;45.486;9.226;2022-11-27T05:08:34;14.93;;;8.60;;
62153;SDS011;48140;45.486;9.226;2022-11-27T05:11:00;17.10;;;9.10;;
62153;SDS011;48140;45.486;9.226;2022-11-27T05:13:28;16.30;;;9.27;;
62153;SDS011;48140;45.486;9.226;2022-11-27T05:15:54;16.15;;;8.90;;
62153;SDS011;48140;45.486;9.226;2022-11-27T05:18:20;17.50;;;9.75;;
62153;SDS011;48140;45.486;9.226;2022-11-27T05:20:46;16.48;;;9.07;;
62153;SDS011;48140;45.486;9.226;2022-11-27T05:23:12;18.40;;;9.55;;
62153;SDS011;48140;45.486;9.226;2022-11-27T05:25:37;15.02;;;9.75;;
62153;SDS011;48140;45.486;9.226;2022-11-27T05:28:03;12.32;;;8.15;;
62153;SDS011;48140;45.486;9.226;2022-11-27T05:30:29;17.95;;;8.88;;
62153;SDS011;48140;45.486;9.226;2022-11-27T05:32:54;15.55;;;8.93;;
62153;SDS011;48140;45.486;9.226;2022-11-27T05:35:20;18.05;;;8.38;;
62153;SDS011;48140;45.486;9.226;2022-11-27T05:37:46;16.45;;;9.35;;
62153;SDS011;48140;45.486;9.226;2022-11-27T05:40:12;15.10;;;8.80;;
62153;SDS011;48140;45.486;9.226;2022-11-27T05:42:37;20.02;;;10.32;;
62153;SDS011;48140;45.486;9.226;2022-11-27T05:45:03;16.92;;;8.90;;
62153;SDS011;48140;45.486;9.226;2022-11-27T05:47:29;16.52;;;8.35;;
62153;SDS011;48140;45.486;9.226;2022-11-27T05:49:55;17.38;;;9.05;;
62153;SDS011;48140;45.486;9.226;2022-11-27T05:52:20;15.98;;;8.88;;
62153;SDS011;48140;45.486;9.226;2022-11-27T05:54:46;12.63;;;8.57;;
62153;SDS011;48140;45.486;9.226;2022-11-27T05:57:11;13.18;;;8.65;;
62153;SDS011;48140;45.486;9.226;2022-11-27T05:59:37;17.08;;;8.52;;
62153;SDS011;48140;45.486;9.226;2022-11-27T06:02:02;19.33;;;8.63;;
62153;SDS011;48140;45.486;9.226;2022-11-27T06:04:31;14.02;;;8.52;;
62153;SDS011;48140;45.486;9.226;2022-11-27T06:06:57;15.65;;;8.20;;
62153;SDS011;48140;45.486;9.226;2022-11-27T06:09:23;15.10;;;8.50;;
62153;SDS011;48140;45.486;9.226;2022-11-27T06:11:48;16.05;;;8.00;;
62153;SDS011;48140;45.486;9.226;2022-11-27T06:14:14;17.58;;;8.05;;
62153;SDS011;48140;45.486;9.226;2022-11-27T06:16:40;16.42;;;8.73;;
62153;SDS011;48140;45.486;9.226;2022-11-27T06:19:06;14.65;;;7.57;;
62153;SDS011;48140;45.486;9.226;2022-11-27T06:21:32;12.93;;;7.63;;
62153;SDS011;48140;45.486;9.226;2022-11-27T06:23:57;11.88;;;7.57;;
62153;SDS011;48140;45.486;9.226;2022-11-27T06:26:24;17.10;;;7.95;;
62153;SDS011;48140;45.486;9.226;2022-11-27T06:28:52;18.48;;;8.88;;
62153;SDS011;48140;45.486;9.226;2022-11-27T06:31:19;15.07;;;8.52;;
62153;SDS011;48140;45.486;9.226;2022-11-27T06:33:47;21.85;;;8.25;;
62153;SDS011;48140;45.486;9.226;2022-11-27T06:36:14;11.27;;;7.65;;
62153;SDS011;48140;45.486;9.226;2022-11-27T06:38:40;14.48;;;8.00;;
62153;SDS011;48140;45.486;9.226;2022-11-27T06:41:07;14.20;;;7.93;;
62153;SDS011;48140;45.486;9.226;2022-11-27T06:43:40;17.20;;;8.07;;
62153;SDS011;48140;45.486;9.226;2022-11-27T06:46:06;15.45;;;8.13;;
62153;SDS011;48140;45.486;9.226;2022-11-27T06:48:35;14.75;;;7.45;;
62153;SDS011;48140;45.486;9.226;2022-11-27T06:51:01;13.70;;;7.88;;
62153;SDS011;48140;45.486;9.226;2022-11-27T06:53:28;12.32;;;7.05;;
62153;SDS011;48140;45.486;9.226;2022-11-27T06:55:54;16.70;;;7.55;;
62153;SDS011;48140;45.486;9.226;2022-11-27T06:58:20;12.35;;;7.07;;
62153;SDS011;48140;45.486;9.226;2022-11-27T07:00:46;13.05;;;7.57;;
62153;SDS011;48140;45.486;9.226;2022-11-27T07:03:12;11.18;;;7.32;;
62153;SDS011;48140;45.486;9.226;2022-11-27T07:05:37;13.75;;;7.35;;
62153;SDS011;48140;45.486;9.226;2022-11-27T07:08:05;15.23;;;7.75;;
62153;SDS011;48140;45.486;9.226;2022-11-27T07:10:34;16.77;;;7.78;;
62153;SDS011;48140;45.486;9.226;2022-11-27T07:13:00;12.85;;;7.13;;
62153;SDS011;48140;45.486;9.226;2022-11-27T07:15:26;12.45;;;7.47;;
62153;SDS011;48140;45.486;9.226;2022-11-27T07:17:52;11.60;;;7.03;;
62153;SDS011;48140;45.486;9.226;2022-11-27T07:20:18;14.65;;;7.85;;
62153;SDS011;48140;45.486;9.226;2022-11-27T07:22:43;14.02;;;7.28;;
62153;SDS011;48140;45.486;9.226;2022-11-27T07:25:09;13.32;;;7.53;;
62153;SDS011;48140;45.486;9.226;2022-11-27T07:27:34;12.05;;;6.80;;
62153;SDS011;48140;45.486;9.226;2022-11-27T07:30:00;13.00;;;6.88;;
62153;SDS011;48140;45.486;9.226;2022-11-27T07:32:26;13.88;;;7.03;;
62153;SDS011;48140;45.486;9.226;2022-11-27T07:34:51;11.10;;;6.85;;
62153;SDS011;48140;45.486;9.226;2022-11-27T07:37:17;12.40;;;7.22;;
62153;SDS011;48140;45.486;9.226;2022-11-27T07:39:43;12.73;;;7.45;;
62153;SDS011;48140;45.486;9.226;2022-11-27T07:42:09;10.60;;;6.75;;
62153;SDS011;48140;45.486;9.226;2022-11-27T07:44:34;11.65;;;6.75;;
62153;SDS011;48140;45.486;9.226;2022-11-27T07:47:00;10.63;;;5.97;;
62153;SDS011;48140;45.486;9.226;2022-11-27T07:49:25;10.63;;;5.78;;
62153;SDS011;48140;45.486;9.226;2022-11-27T07:51:51;13.38;;;6.63;;
62153;SDS011;48140;45.486;9.226;2022-11-27T07:54:17;13.43;;;6.45;;
62153;SDS011;48140;45.486;9.226;2022-11-27T07:56:42;8.35;;;5.65;;
62153;SDS011;48140;45.486;9.226;2022-11-27T07:59:08;10.18;;;5.72;;
62153;SDS011;48140;45.486;9.226;2022-11-27T08:01:33;11.80;;;6.18;;
62153;SDS011;48140;45.486;9.226;2022-11-27T08:03:59;9.77;;;5.85;;
62153;SDS011;48140;45.486;9.226;2022-11-27T08:06:25;10.07;;;6.07;;
62153;SDS011;48140;45.486;9.226;2022-11-27T08:08:52;9.45;;;5.50;;
62153;SDS011;48140;45.486;9.226;2022-11-27T08:11:21;9.88;;;5.50;;
62153;SDS011;48140;45.486;9.226;2022-11-27T08:13:49;11.73;;;6.28;;
62153;SDS011;48140;45.486;9.226;2022-11-27T08:16:14;11.27;;;6.47;;
62153;SDS011;48140;45.486;9.226;2022-11-27T08:18:41;12.68;;;6.80;;
62153;SDS011;48140;45.486;9.226;2022-11-27T08:21:07;13.85;;;7.38;;
62153;SDS011;48140;45.486;9.226;2022-11-27T08:23:32;14.30;;;7.85;;
62153;SDS011;48140;45.486;9.226;2022-11-27T08:25:58;14.18;;;8.20;;
62153;SDS011;48140;45.486;9.226;2022-11-27T08:28:24;12.02;;;7.32;;
62153;SDS011;48140;45.486;9.226;2022-11-27T08:30:56;16.73;;;7.72;;
62153;SDS011;48140;45.486;9.226;2022-11-27T08:33:22;11.48;;;8.15;;
62153;SDS011;48140;45.486;9.226;2022-11-27T08:35:48;13.00;;;7.55;;
62153;SDS011;48140;45.486;9.226;2022-11-27T08:38:14;17.38;;;8.60;;
62153;SDS011;48140;45.486;9.226;2022-11-27T08:40:40;12.70;;;7.85;;
62153;SDS011;48140;45.486;9.226;2022-11-27T08:43:05;20.92;;;8.30;;
62153;SDS011;48140;45.486;9.226;2022-11-27T08:45:31;12.82;;;8.05;;
62153;SDS011;48140;45.486;9.226;2022-11-27T08:47:57;15.43;;;8.38;;
62153;SDS011;48140;45.486;9.226;2022-11-27T08:50:23;14.15;;;8.10;;
62153;SDS011;48140;45.486;9.226;2022-11-27T08:52:49;15.68;;;7.50;;
62153;SDS011;48140;45.486;9.226;2022-11-27T08:55:14;15.63;;;8.15;;
62153;SDS011;48140;45.486;9.226;2022-11-27T08:57:40;15.02;;;7.50;;
62153;SDS011;48140;45.486;9.226;2022-11-27T09:00:06;13.32;;;7.07;;
62153;SDS011;48140;45.486;9.226;2022-11-27T09:02:32;10.55;;;6.40;;
62153;SDS011;48140;45.486;9.226;2022-11-27T09:04:58;12.68;;;6.43;;
62153;SDS011;48140;45.486;9.226;2022-11-27T09:07:26;7.80;;;4.90;;
62153;SDS011;48140;45.486;9.226;2022-11-27T09:09:52;7.85;;;4.85;;
62153;SDS011;48140;45.486;9.226;2022-11-27T09:12:18;11.13;;;5.57;;
62153;SDS011;48140;45.486;9.226;2022-11-27T09:14:43;13.07;;;6.15;;
62153;SDS011;48140;45.486;9.226;2022-11-27T09:17:09;9.77;;;4.85;;
62153;SDS011;48140;45.486;9.226;2022-11-27T09:19:35;8.98;;;5.05;;
62153;SDS011;48140;45.486;9.226;2022-11-27T09:22:00;7.57;;;4.72;;
62153;SDS011;48140;45.486;9.226;2022-11-27T09:24:26;13.63;;;5.00;;
62153;SDS011;48140;45.486;9.226;2022-11-27T09:26:52;8.05;;;4.40;;
62153;SDS011;48140;45.486;9.226;2022-11-27T09:29:17;7.90;;;4.43;;
62153;SDS011;48140;45.486;9.226;2022-11-27T09:31:43;8.38;;;4.68;;
62153;SDS011;48140;45.486;9.226;2022-11-27T09:34:09;7.25;;;4.32;;
62153;SDS011;48140;45.486;9.226;2022-11-27T09:36:34;7.45;;;4.25;;
62153;SDS011;48140;45.486;9.226;2022-11-27T09:39:00;9.32;;;4.38;;
62153;SDS011;48140;45.486;9.226;2022-11-27T09:47:00;10.07;;;4.68;;
62153;SDS011;48140;45.486;9.226;2022-11-27T09:49:35;7.32;;;4.53;;
62153;SDS011;48140;45.486;9.226;2022-11-27T09:52:16;6.35;;;3.85;;
62153;SDS011;48140;45.486;9.226;2022-11-27T09:55:04;6.05;;;3.65;;
62153;SDS011;48140;45.486;9.226;2022-11-27T09:57:35;8.35;;;4.30;;
62153;SDS011;48140;45.486;9.226;2022-11-27T10:00:09;7.00;;;3.75;;
62153;SDS011;48140;45.486;9.226;2022-11-27T10:02:39;7.45;;;3.90;;
62153;SDS011;48140;45.486;9.226;2022-11-27T10:05:27;8.13;;;4.75;;
62153;SDS011;48140;45.486;9.226;2022-11-27T10:08:19;6.53;;;4.00;;
62153;SDS011;48140;45.486;9.226;2022-11-27T10:18:33;7.75;;;4.22;;
62153;SDS011;48140;45.486;9.226;2022-11-27T10:27:02;19.58;;;10.65;;
62153;SDS011;48140;45.486;9.226;2022-11-27T10:32:15;10.05;;;4.95;;
62153;SDS011;48140;45.486;9.226;2022-11-27T10:34:53;8.98;;;4.82;;
62153;SDS011;48140;45.486;9.226;2022-11-27T10:43:09;6.95;;;4.57;;
62153;SDS011;48140;45.486;9.226;2022-11-27T10:48:08;8.10;;;5.30;;
62153;SDS011;48140;45.486;9.226;2022-11-27T10:50:34;8.27;;;4.45;;
62153;SDS011;48140;45.486;9.226;2022-11-27T10:53:02;10.57;;;5.07;;
62153;SDS011;48140;45.486;9.226;2022-11-27T10:55:44;8.50;;;5.60;;
62153;SDS011;48140;45.486;9.226;2022-11-27T10:58:22;8.35;;;5.20;;
62153;SDS011;48140;45.486;9.226;2022-11-27T11:01:09;8.07;;;5.47;;
62153;SDS011;48140;45.486;9.226;2022-11-27T11:03:36;9.57;;;5.40;;
62153;SDS011;48140;45.486;9.226;2022-11-27T11:06:03;8.07;;;5.32;;
62153;SDS011;48140;45.486;9.226;2022-11-27T11:08:38;7.70;;;5.35;;
62153;SDS011;48140;45.486;9.226;2022-11-27T11:11:05;7.45;;;5.10;;
62153;SDS011;48140;45.486;9.226;2022-11-27T11:13:41;7.18;;;4.65;;
62153;SDS011;48140;45.486;9.226;2022-11-27T11:26:53;6.28;;;3.50;;
62153;SDS011;48140;45.486;9.226;2022-11-27T11:29:40;5.85;;;3.35;;
62153;SDS011;48140;45.486;9.226;2022-11-27T11:34:32;5.13;;;3.17;;
62153;SDS011;48140;45.486;9.226;2022-11-27T11:37:17;7.53;;;3.35;;
62153;SDS011;48140;45.486;9.226;2022-11-27T11:39:51;5.50;;;3.20;;
62153;SDS011;48140;45.486;9.226;2022-11-27T11:42:20;5.43;;;3.13;;
62153;SDS011;48140;45.486;9.226;2022-11-27T11:44:52;5.20;;;3.05;;
62153;SDS011;48140;45.486;9.226;2022-11-27T11:47:20;4.28;;;2.58;;
62153;SDS011;48140;45.486;9.226;2022-11-27T11:49:49;4.63;;;2.78;;
62153;SDS011;48140;45.486;9.226;2022-11-27T11:52:23;5.40;;;3.30;;
62153;SDS011;48140;45.486;9.226;2022-11-27T11:55:18;8.23;;;3.97;;
62153;SDS011;48140;45.486;9.226;2022-11-27T11:58:02;6.60;;;3.55;;
62153;SDS011;48140;45.486;9.226;2022-11-27T12:00:48;5.47;;;4.20;;
62153;SDS011;48140;45.486;9.226;2022-11-27T12:03:24;5.90;;;3.88;;
62153;SDS011;48140;45.486;9.226;2022-11-27T12:06:10;7.10;;;4.03;;
62153;SDS011;48140;45.486;9.226;2022-11-27T12:12:05;6.50;;;3.50;;
62153;SDS011;48140;45.486;9.226;2022-11-27T12:14:44;7.45;;;3.70;;
62153;SDS011;48140;45.486;9.226;2022-11-27T12:23:05;7.00;;;3.70;;
62153;SDS011;48140;45.486;9.226;2022-11-27T12:26:01;8.68;;;4.20;;
62153;SDS011;48140;45.486;9.226;2022-11-27T12:31:46;9.43;;;3.88;;
62153;SDS011;48140;45.486;9.226;2022-11-27T12:34:38;6.63;;;4.05;;
62153;SDS011;48140;45.486;9.226;2022-11-27T12:45:28;6.07;;;3.70;;
62153;SDS011;48140;45.486;9.226;2022-11-27T12:48:19;15.15;;;4.10;;
62153;SDS011;48140;45.486;9.226;2022-11-27T12:50:59;6.43;;;3.58;;
62153;SDS011;48140;45.486;9.226;2022-11-27T12:59:05;5.93;;;3.75;;
62153;SDS011;48140;45.486;9.226;2022-11-27T13:01:41;6.32;;;3.78;;
62153;SDS011;48140;45.486;9.226;2022-11-27T13:06:52;6.78;;;4.13;;
62153;SDS011;48140;45.486;9.226;2022-11-27T13:10:08;6.32;;;4.13;;
62153;SDS011;48140;45.486;9.226;2022-11-27T13:12:22;6.03;;;3.80;;
62153;SDS011;48140;45.486;9.226;2022-11-27T13:14:55;5.15;;;3.42;;
62153;SDS011;48140;45.486;9.226;2022-11-27T13:17:28;5.97;;;4.15;;
62153;SDS011;48140;45.486;9.226;2022-11-27T13:20:01;5.93;;;3.80;;
62153;SDS011;48140;45.486;9.226;2022-11-27T13:22:31;5.50;;;3.65;;
62153;SDS011;48140;45.486;9.226;2022-11-27T13:25:00;6.97;;;4.03;;
62153;SDS011;48140;45.486;9.226;2022-11-27T13:27:26;6.15;;;3.72;;
62153;SDS011;48140;45.486;9.226;2022-11-27T13:30:02;5.03;;;3.53;;
62153;SDS011;48140;45.486;9.226;2022-11-27T13:32:31;7.25;;;4.57;;
62153;SDS011;48140;45.486;9.226;2022-11-27T13:35:03;9.98;;;4.18;;
62153;SDS011;48140;45.486;9.226;2022-11-27T13:37:54;6.15;;;4.40;;
62153;SDS011;48140;45.486;9.226;2022-11-27T13:40:29;9.85;;;4.10;;
62153;SDS011;48140;45.486;9.226;2022-11-27T13:43:05;5.50;;;4.30;;
62153;SDS011;48140;45.486;9.226;2022-11-27T13:45:43;5.78;;;3.63;;
62153;SDS011;48140;45.486;9.226;2022-11-27T13:48:24;5.65;;;3.97;;
62153;SDS011;48140;45.486;9.226;2022-11-27T13:53:37;5.93;;;3.78;;
62153;SDS011;48140;45.486;9.226;2022-11-27T13:56:05;6.82;;;4.03;;
62153;SDS011;48140;45.486;9.226;2022-11-27T13:58:33;6.32;;;4.03;;
62153;SDS011;48140;45.486;9.226;2022-11-27T14:01:15;5.80;;;3.65;;
62153;SDS011;48140;45.486;9.226;2022-11-27T14:23:47;6.57;;;4.30;;
62153;SDS011;48140;45.486;9.226;2022-11-27T14:28:44;6.22;;;4.20;;
62153;SDS011;48140;45.486;9.226;2022-11-27T14:31:21;5.65;;;3.85;;
62153;SDS011;48140;45.486;9.226;2022-11-27T14:33:59;5.95;;;3.80;;
62153;SDS011;48140;45.486;9.226;2022-11-27T14:36:32;7.65;;;4.40;;
62153;SDS011;48140;45.486;9.226;2022-11-27T14:39:02;6.20;;;4.50;;
62153;SDS011;48140;45.486;9.226;2022-11-27T14:41:28;6.25;;;4.30;;
62153;SDS011;48140;45.486;9.226;2022-11-27T14:43:59;6.22;;;4.30;;
62153;SDS011;48140;45.486;9.226;2022-11-27T14:46:25;7.38;;;5.05;;
62153;SDS011;48140;45.486;9.226;2022-11-27T14:48:52;6.25;;;4.65;;
62153;SDS011;48140;45.486;9.226;2022-11-27T14:51:24;7.38;;;4.53;;
62153;SDS011;48140;45.486;9.226;2022-11-27T14:53:58;7.55;;;4.30;;
62153;SDS011;48140;45.486;9.226;2022-11-27T14:56:27;9.85;;;4.78;;
62153;SDS011;48140;45.486;9.226;2022-11-27T14:58:57;7.65;;;4.88;;
62153;SDS011;48140;45.486;9.226;2022-11-27T15:01:26;6.45;;;4.55;;
62153;SDS011;48140;45.486;9.226;2022-11-27T15:03:57;8.07;;;4.75;;
62153;SDS011;48140;45.486;9.226;2022-11-27T15:06:25;7.40;;;4.88;;
62153;SDS011;48140;45.486;9.226;2022-11-27T15:08:55;7.63;;;4.32;;
62153;SDS011;48140;45.486;9.226;2022-11-27T15:11:21;7.90;;;5.03;;
62153;SDS011;48140;45.486;9.226;2022-11-27T15:13:48;7.30;;;4.63;;
62153;SDS011;48140;45.486;9.226;2022-11-27T15:16:20;9.48;;;4.97;;
62153;SDS011;48140;45.486;9.226;2022-11-27T15:18:53;7.40;;;4.43;;
62153;SDS011;48140;45.486;9.226;2022-11-27T15:21:26;8.05;;;4.75;;
62153;SDS011;48140;45.486;9.226;2022-11-27T15:23:53;7.80;;;5.07;;
62153;SDS011;48140;45.486;9.226;2022-11-27T15:28:58;8.25;;;5.40;;
62153;SDS011;48140;45.486;9.226;2022-11-27T15:31:30;19.48;;;10.32;;
62153;SDS011;48140;45.486;9.226;2022-11-27T15:36:46;8.45;;;5.10;;
62153;SDS011;48140;45.486;9.226;2022-11-27T15:41:50;9.68;;;5.35;;
62153;SDS011;48140;45.486;9.226;2022-11-27T15:44:24;7.40;;;5.03;;
62153;SDS011;48140;45.486;9.226;2022-11-27T15:46:51;11.15;;;5.50;;
62153;SDS011;48140;45.486;9.226;2022-11-27T15:49:18;9.68;;;5.47;;
62153;SDS011;48140;45.486;9.226;2022-11-27T15:51:44;9.52;;;6.00;;
62153;SDS011;48140;45.486;9.226;2022-11-27T15:54:10;10.75;;;5.97;;
62153;SDS011;48140;45.486;9.226;2022-11-27T15:56:36;8.52;;;4.85;;
62153;SDS011;48140;45.486;9.226;2022-11-27T15:59:02;14.55;;;6.47;;
62153;SDS011;48140;45.486;9.226;2022-11-27T16:01:28;10.15;;;6.32;;
62153;SDS011;48140;45.486;9.226;2022-11-27T16:03:54;10.20;;;6.07;;
62153;SDS011;48140;45.486;9.226;2022-11-27T16:06:21;10.93;;;5.78;;
62153;SDS011;48140;45.486;9.226;2022-11-27T16:08:56;8.68;;;5.68;;
62153;SDS011;48140;45.486;9.226;2022-11-27T16:11:24;10.10;;;5.72;;
62153;SDS011;48140;45.486;9.226;2022-11-27T16:13:51;13.68;;;5.47;;
62153;SDS011;48140;45.486;9.226;2022-11-27T16:16:17;9.52;;;5.43;;
62153;SDS011;48140;45.486;9.226;2022-11-27T16:18:43;8.15;;;4.90;;
62153;SDS011;48140;45.486;9.226;2022-11-27T16:21:09;8.23;;;5.15;;
62153;SDS011;48140;45.486;9.226;2022-11-27T16:23:37;7.75;;;5.00;;
62153;SDS011;48140;45.486;9.226;2022-11-27T16:26:05;8.00;;;5.10;;
62153;SDS011;48140;45.486;9.226;2022-11-27T16:28:31;9.13;;;5.40;;
62153;SDS011;48140;45.486;9.226;2022-11-27T16:30:58;9.52;;;5.75;;
62153;SDS011;48140;45.486;9.226;2022-11-27T16:33:25;11.05;;;5.60;;
62153;SDS011;48140;45.486;9.226;2022-11-27T16:35:52;12.27;;;6.00;;
62153;SDS011;48140;45.486;9.226;2022-11-27T16:38:18;10.25;;;5.38;;
62153;SDS011;48140;45.486;9.226;2022-11-27T16:40:45;10.13;;;5.10;;
62153;SDS011;48140;45.486;9.226;2022-11-27T16:43:11;10.07;;;5.30;;
62153;SDS011;48140;45.486;9.226;2022-11-27T16:45:37;10.50;;;5.53;;
62153;SDS011;48140;45.486;9.226;2022-11-27T16:48:02;11.93;;;5.50;;
62153;SDS011;48140;45.486;9.226;2022-11-27T16:50:28;15.02;;;5.78;;
62153;SDS011;48140;45.486;9.226;2022-11-27T16:52:55;10.27;;;5.90;;
62153;SDS011;48140;45.486;9.226;2022-11-27T16:55:21;10.02;;;5.65;;
62153;SDS011;48140;45.486;9.226;2022-11-27T16:57:48;10.93;;;5.85;;
62153;SDS011;48140;45.486;9.226;2022-11-27T17:00:14;10.63;;;5.80;;
62153;SDS011;48140;45.486;9.226;2022-11-27T17:02:40;9.35;;;5.70;;